sensor_id;sensor_type;location;lat;lon;timestamp;pressure;altitude;pressure_sealevel;temperature;humidity
54455;BME280;40364;52.270;10.546;2023-02-13T00:00:21;102873.84;;;15.12;81.41
54455;BME280;40364;52.270;10.546;2023-02-13T00:02:48;102868.38;;;15.07;81.42
54455;BME280;40364;52.270;10.546;2023-02-13T00:05:15;102869.88;;;15.36;79.44
54455;BME280;40364;52.270;10.546;2023-02-13T00:07:42;102866.59;;;14.89;82.86
54455;BME280;40364;52.270;10.546;2023-02-13T00:10:09;102867.81;;;15.19;81.34
54455;BME280;40364;52.270;10.546;2023-02-13T00:12:36;102869.06;;;15.35;78.61
54455;BME280;40364;52.270;10.546;2023-02-13T00:15:05;102870.50;;;15.55;76.45
54455;BME280;40364;52.270;10.546;2023-02-13T00:17:32;102862.81;;;15.16;79.15
54455;BME280;40364;52.270;10.546;2023-02-13T00:19:58;102872.50;;;15.55;77.89
54455;BME280;40364;52.270;10.546;2023-02-13T00:22:25;102865.56;;;15.83;75.38
54455;BME280;40364;52.270;10.546;2023-02-13T00:24:52;102862.22;;;15.50;76.41
54455;BME280;40364;52.270;10.546;2023-02-13T00:27:18;102868.72;;;15.37;78.34
54455;BME280;40364;52.270;10.546;2023-02-13T00:29:45;102873.06;;;15.43;77.33
54455;BME280;40364;52.270;10.546;2023-02-13T00:32:14;102875.41;;;15.19;79.77
54455;BME280;40364;52.270;10.546;2023-02-13T00:34:40;102860.63;;;15.35;78.66
54455;BME280;40364;52.270;10.546;2023-02-13T00:37:08;102864.59;;;15.34;78.13
54455;BME280;40364;52.270;10.546;2023-02-13T00:39:35;102860.94;;;15.34;78.58
54455;BME280;40364;52.270;10.546;2023-02-13T00:42:01;102862.31;;;15.14;79.53
54455;BME280;40364;52.270;10.546;2023-02-13T00:44:28;102859.31;;;15.10;78.83
54455;BME280;40364;52.270;10.546;2023-02-13T00:46:55;102863.44;;;15.89;75.07
54455;BME280;40364;52.270;10.546;2023-02-13T00:49:23;102868.84;;;16.33;71.49
54455;BME280;40364;52.270;10.546;2023-02-13T00:51:49;102875.28;;;15.77;74.50
54455;BME280;40364;52.270;10.546;2023-02-13T00:54:16;102877.13;;;16.38;71.01
54455;BME280;40364;52.270;10.546;2023-02-13T00:56:43;102874.34;;;15.99;71.60
54455;BME280;40364;52.270;10.546;2023-02-13T00:59:09;102871.31;;;15.78;73.65
54455;BME280;40364;52.270;10.546;2023-02-13T01:01:36;102874.13;;;15.25;76.54
54455;BME280;40364;52.270;10.546;2023-02-13T01:04:03;102863.59;;;15.08;78.89
54455;BME280;40364;52.270;10.546;2023-02-13T01:06:31;102869.50;;;15.51;77.41
54455;BME280;40364;52.270;10.546;2023-02-13T01:08:58;102868.69;;;15.90;73.39
54455;BME280;40364;52.270;10.546;2023-02-13T01:11:24;102871.22;;;16.00;72.34
54455;BME280;40364;52.270;10.546;2023-02-13T01:13:51;102865.09;;;15.90;73.09
54455;BME280;40364;52.270;10.546;2023-02-13T01:16:17;102857.16;;;15.61;74.68
54455;BME280;40364;52.270;10.546;2023-02-13T01:18:44;102859.84;;;15.66;75.24
54455;BME280;40364;52.270;10.546;2023-02-13T01:21:15;102860.25;;;15.90;74.23
54455;BME280;40364;52.270;10.546;2023-02-13T01:23:44;102854.53;;;16.04;72.93
54455;BME280;40364;52.270;10.546;2023-02-13T01:26:16;102854.19;;;15.97;72.60
54455;BME280;40364;52.270;10.546;2023-02-13T01:28:43;102847.34;;;15.49;75.19
54455;BME280;40364;52.270;10.546;2023-02-13T01:31:09;102841.22;;;15.47;75.12
54455;BME280;40364;52.270;10.546;2023-02-13T01:33:36;102843.69;;;16.20;71.50
54455;BME280;40364;52.270;10.546;2023-02-13T01:36:07;102844.34;;;16.25;70.03
54455;BME280;40364;52.270;10.546;2023-02-13T01:38:34;102834.78;;;16.61;68.91
54455;BME280;40364;52.270;10.546;2023-02-13T01:41:02;102840.28;;;16.66;68.60
54455;BME280;40364;52.270;10.546;2023-02-13T01:43:43;102834.66;;;17.00;66.08
54455;BME280;40364;52.270;10.546;2023-02-13T01:46:11;102828.88;;;16.71;67.24
54455;BME280;40364;52.270;10.546;2023-02-13T01:48:38;102832.13;;;16.56;67.37
54455;BME280;40364;52.270;10.546;2023-02-13T01:51:09;102825.53;;;16.86;67.01
54455;BME280;40364;52.270;10.546;2023-02-13T01:53:39;102824.22;;;16.92;66.34
54455;BME280;40364;52.270;10.546;2023-02-13T01:56:14;102826.88;;;16.97;65.75
54455;BME280;40364;52.270;10.546;2023-02-13T01:58:44;102819.56;;;16.96;65.71
54455;BME280;40364;52.270;10.546;2023-02-13T02:01:11;102821.56;;;16.87;65.76
54455;BME280;40364;52.270;10.546;2023-02-13T02:03:41;102831.84;;;16.66;66.39
54455;BME280;40364;52.270;10.546;2023-02-13T02:06:12;102823.41;;;16.66;66.50
54455;BME280;40364;52.270;10.546;2023-02-13T02:08:40;102829.09;;;16.09;69.19
54455;BME280;40364;52.270;10.546;2023-02-13T02:11:13;102821.91;;;15.86;71.26
54455;BME280;40364;52.270;10.546;2023-02-13T02:13:45;102816.81;;;15.88;71.61
54455;BME280;40364;52.270;10.546;2023-02-13T02:16:12;102812.88;;;15.58;72.61
54455;BME280;40364;52.270;10.546;2023-02-13T02:18:38;102812.00;;;14.95;76.88
54455;BME280;40364;52.270;10.546;2023-02-13T02:21:34;102821.75;;;15.91;72.73
54455;BME280;40364;52.270;10.546;2023-02-13T02:24:29;102811.31;;;15.82;72.43
54455;BME280;40364;52.270;10.546;2023-02-13T02:33:16;102816.25;;;16.60;68.03
54455;BME280;40364;52.270;10.546;2023-02-13T02:35:50;102809.63;;;16.56;67.51
54455;BME280;40364;52.270;10.546;2023-02-13T02:38:33;102818.94;;;16.65;66.96
54455;BME280;40364;52.270;10.546;2023-02-13T02:41:09;102822.19;;;16.58;67.23
54455;BME280;40364;52.270;10.546;2023-02-13T02:44:07;102818.38;;;16.37;67.36
54455;BME280;40364;52.270;10.546;2023-02-13T02:46:44;102816.19;;;16.08;69.90
54455;BME280;40364;52.270;10.546;2023-02-13T02:49:34;102807.31;;;16.58;67.34
54455;BME280;40364;52.270;10.546;2023-02-13T02:52:26;102802.38;;;16.80;65.89
54455;BME280;40364;52.270;10.546;2023-02-13T02:55:02;102805.47;;;16.53;67.01
54455;BME280;40364;52.270;10.546;2023-02-13T02:57:36;102801.47;;;16.11;68.48
54455;BME280;40364;52.270;10.546;2023-02-13T03:00:24;102802.34;;;16.20;68.25
54455;BME280;40364;52.270;10.546;2023-02-13T03:03:11;102799.00;;;16.09;68.65
54455;BME280;40364;52.270;10.546;2023-02-13T03:06:00;102790.41;;;16.23;68.69
54455;BME280;40364;52.270;10.546;2023-02-13T03:08:40;102792.22;;;16.10;68.68
54455;BME280;40364;52.270;10.546;2023-02-13T03:11:25;102801.00;;;16.35;67.74
54455;BME280;40364;52.270;10.546;2023-02-13T03:14:10;102796.91;;;15.75;70.72
54455;BME280;40364;52.270;10.546;2023-02-13T03:16:40;102797.47;;;15.55;72.03
54455;BME280;40364;52.270;10.546;2023-02-13T03:19:32;102800.34;;;16.29;68.88
54455;BME280;40364;52.270;10.546;2023-02-13T03:22:31;102797.06;;;16.62;66.82
54455;BME280;40364;52.270;10.546;2023-02-13T03:25:09;102808.31;;;16.62;66.24
54455;BME280;40364;52.270;10.546;2023-02-13T03:27:42;102801.84;;;16.61;66.03
54455;BME280;40364;52.270;10.546;2023-02-13T03:30:37;102799.72;;;16.67;65.08
54455;BME280;40364;52.270;10.546;2023-02-13T03:33:17;102804.97;;;16.34;66.94
54455;BME280;40364;52.270;10.546;2023-02-13T03:35:52;102794.53;;;16.26;66.54
54455;BME280;40364;52.270;10.546;2023-02-13T03:38:46;102792.25;;;16.19;67.13
54455;BME280;40364;52.270;10.546;2023-02-13T03:41:20;102800.69;;;16.19;66.96
54455;BME280;40364;52.270;10.546;2023-02-13T03:44:06;102796.63;;;15.94;68.75
54455;BME280;40364;52.270;10.546;2023-02-13T03:46:39;102796.22;;;15.39;71.43
54455;BME280;40364;52.270;10.546;2023-02-13T03:49:10;102796.53;;;15.37;72.70
54455;BME280;40364;52.270;10.546;2023-02-13T03:51:59;102800.00;;;15.57;72.02
54455;BME280;40364;52.270;10.546;2023-02-13T03:54:32;102801.81;;;15.61;71.85
54455;BME280;40364;52.270;10.546;2023-02-13T03:57:19;102800.31;;;15.02;75.74
54455;BME280;40364;52.270;10.546;2023-02-13T04:00:10;102804.91;;;15.29;74.71
54455;BME280;40364;52.270;10.546;2023-02-13T04:02:42;102804.06;;;15.50;73.81
54455;BME280;40364;52.270;10.546;2023-02-13T04:05:16;102813.22;;;15.34;74.22
54455;BME280;40364;52.270;10.546;2023-02-13T04:07:45;102801.28;;;14.75;77.95
54455;BME280;40364;52.270;10.546;2023-02-13T04:10:15;102808.75;;;15.33;74.56
54455;BME280;40364;52.270;10.546;2023-02-13T04:12:50;102804.84;;;15.42;73.96
54455;BME280;40364;52.270;10.546;2023-02-13T04:15:23;102806.75;;;16.04;69.96
54455;BME280;40364;52.270;10.546;2023-02-13T04:17:55;102800.00;;;16.22;68.26
54455;BME280;40364;52.270;10.546;2023-02-13T04:20:26;102801.47;;;16.11;68.46
54455;BME280;40364;52.270;10.546;2023-02-13T04:22:53;102808.59;;;15.38;72.24
54455;BME280;40364;52.270;10.546;2023-02-13T04:25:21;102802.28;;;16.03;69.01
54455;BME280;40364;52.270;10.546;2023-02-13T04:27:48;102803.19;;;15.72;69.38
54455;BME280;40364;52.270;10.546;2023-02-13T04:30:15;102800.59;;;15.85;68.95
54455;BME280;40364;52.270;10.546;2023-02-13T04:32:42;102792.09;;;15.67;69.23
54455;BME280;40364;52.270;10.546;2023-02-13T04:35:08;102797.13;;;15.96;68.42
54455;BME280;40364;52.270;10.546;2023-02-13T04:37:38;102795.59;;;15.73;68.84
54455;BME280;40364;52.270;10.546;2023-02-13T04:40:05;102792.72;;;16.21;67.16
54455;BME280;40364;52.270;10.546;2023-02-13T04:42:34;102789.84;;;15.95;67.44
54455;BME280;40364;52.270;10.546;2023-02-13T04:45:00;102792.69;;;15.25;71.74
54455;BME280;40364;52.270;10.546;2023-02-13T04:47:27;102792.63;;;15.47;70.42
54455;BME280;40364;52.270;10.546;2023-02-13T04:49:54;102792.09;;;15.36;70.87
54455;BME280;40364;52.270;10.546;2023-02-13T04:52:20;102782.06;;;15.13;73.05
54455;BME280;40364;52.270;10.546;2023-02-13T04:54:47;102790.69;;;14.72;75.78
54455;BME280;40364;52.270;10.546;2023-02-13T04:57:14;102780.81;;;15.28;72.36
54455;BME280;40364;52.270;10.546;2023-02-13T04:59:42;102776.31;;;15.89;69.32
54455;BME280;40364;52.270;10.546;2023-02-13T05:02:08;102783.47;;;15.64;69.23
54455;BME280;40364;52.270;10.546;2023-02-13T05:04:35;102767.16;;;15.74;69.49
54455;BME280;40364;52.270;10.546;2023-02-13T05:07:02;102776.38;;;15.66;69.96
54455;BME280;40364;52.270;10.546;2023-02-13T05:09:29;102782.81;;;15.67;68.87
54455;BME280;40364;52.270;10.546;2023-02-13T05:11:56;102788.81;;;15.43;71.10
54455;BME280;40364;52.270;10.546;2023-02-13T05:14:22;102782.13;;;14.99;73.19
54455;BME280;40364;52.270;10.546;2023-02-13T05:16:59;102786.78;;;15.04;74.80
54455;BME280;40364;52.270;10.546;2023-02-13T05:19:26;102785.78;;;15.62;70.44
54455;BME280;40364;52.270;10.546;2023-02-13T05:21:53;102792.41;;;15.66;70.10
54455;BME280;40364;52.270;10.546;2023-02-13T05:24:37;102795.28;;;15.92;68.19
54455;BME280;40364;52.270;10.546;2023-02-13T05:27:04;102798.22;;;15.38;70.72
54455;BME280;40364;52.270;10.546;2023-02-13T05:29:31;102797.19;;;15.03;73.11
54455;BME280;40364;52.270;10.546;2023-02-13T05:31:58;102794.81;;;15.50;70.63
54455;BME280;40364;52.270;10.546;2023-02-13T05:34:27;102794.13;;;15.13;71.64
54455;BME280;40364;52.270;10.546;2023-02-13T05:36:54;102794.00;;;14.96;73.30
54455;BME280;40364;52.270;10.546;2023-02-13T05:39:21;102804.28;;;15.32;71.63
54455;BME280;40364;52.270;10.546;2023-02-13T05:41:50;102804.38;;;15.18;72.19
54455;BME280;40364;52.270;10.546;2023-02-13T05:44:17;102796.53;;;15.06;72.11
54455;BME280;40364;52.270;10.546;2023-02-13T05:46:43;102792.25;;;15.09;72.25
54455;BME280;40364;52.270;10.546;2023-02-13T05:49:11;102785.06;;;14.72;74.27
54455;BME280;40364;52.270;10.546;2023-02-13T05:51:40;102782.91;;;14.91;74.49
54455;BME280;40364;52.270;10.546;2023-02-13T05:54:07;102787.00;;;14.63;75.00
54455;BME280;40364;52.270;10.546;2023-02-13T05:56:34;102790.34;;;14.51;76.06
54455;BME280;40364;52.270;10.546;2023-02-13T05:59:00;102788.94;;;14.26;78.87
54455;BME280;40364;52.270;10.546;2023-02-13T06:01:27;102792.97;;;13.70;81.94
54455;BME280;40364;52.270;10.546;2023-02-13T06:04:00;102797.53;;;13.94;80.31
54455;BME280;40364;52.270;10.546;2023-02-13T06:06:32;102791.81;;;14.48;76.88
54455;BME280;40364;52.270;10.546;2023-02-13T06:09:00;102797.31;;;14.98;73.40
54455;BME280;40364;52.270;10.546;2023-02-13T06:11:27;102797.16;;;15.26;70.62
54455;BME280;40364;52.270;10.546;2023-02-13T06:13:54;102799.47;;;14.57;75.27
54455;BME280;40364;52.270;10.546;2023-02-13T06:16:20;102788.84;;;14.31;75.07
54455;BME280;40364;52.270;10.546;2023-02-13T06:18:47;102799.81;;;14.41;75.47
54455;BME280;40364;52.270;10.546;2023-02-13T06:21:14;102791.47;;;14.86;73.37
54455;BME280;40364;52.270;10.546;2023-02-13T06:23:41;102799.34;;;14.12;78.18
54455;BME280;40364;52.270;10.546;2023-02-13T06:26:09;102796.38;;;13.81;81.69
54455;BME280;40364;52.270;10.546;2023-02-13T06:28:36;102803.50;;;13.46;83.23
54455;BME280;40364;52.270;10.546;2023-02-13T06:31:03;102812.78;;;13.74;82.42
54455;BME280;40364;52.270;10.546;2023-02-13T06:33:30;102808.72;;;13.94;81.16
54455;BME280;40364;52.270;10.546;2023-02-13T06:35:57;102812.44;;;13.48;83.29
54455;BME280;40364;52.270;10.546;2023-02-13T06:38:24;102819.41;;;13.64;82.48
54455;BME280;40364;52.270;10.546;2023-02-13T06:40:50;102827.91;;;13.87;81.43
54455;BME280;40364;52.270;10.546;2023-02-13T06:43:18;102826.84;;;14.24;78.87
54455;BME280;40364;52.270;10.546;2023-02-13T06:45:45;102821.44;;;13.31;84.51
54455;BME280;40364;52.270;10.546;2023-02-13T06:48:12;102822.31;;;13.13;85.85
54455;BME280;40364;52.270;10.546;2023-02-13T06:50:39;102830.22;;;13.25;86.43
54455;BME280;40364;52.270;10.546;2023-02-13T06:53:06;102818.44;;;13.28;86.13
54455;BME280;40364;52.270;10.546;2023-02-13T06:55:32;102827.25;;;13.35;84.38
54455;BME280;40364;52.270;10.546;2023-02-13T06:57:59;102821.78;;;13.11;87.04
54455;BME280;40364;52.270;10.546;2023-02-13T07:00:27;102834.59;;;14.40;78.27
54455;BME280;40364;52.270;10.546;2023-02-13T07:02:54;102831.25;;;14.66;75.11
54455;BME280;40364;52.270;10.546;2023-02-13T07:05:20;102827.31;;;14.53;75.38
54455;BME280;40364;52.270;10.546;2023-02-13T07:07:47;102836.25;;;14.55;74.59
54455;BME280;40364;52.270;10.546;2023-02-13T07:10:14;102834.53;;;14.18;76.60
54455;BME280;40364;52.270;10.546;2023-02-13T07:12:40;102832.38;;;14.01;78.47
54455;BME280;40364;52.270;10.546;2023-02-13T07:15:08;102840.44;;;14.30;77.15
54455;BME280;40364;52.270;10.546;2023-02-13T07:17:36;102833.13;;;14.57;74.91
54455;BME280;40364;52.270;10.546;2023-02-13T07:20:03;102836.34;;;14.00;76.90
54455;BME280;40364;52.270;10.546;2023-02-13T07:22:31;102830.09;;;14.89;72.23
54455;BME280;40364;52.270;10.546;2023-02-13T07:24:58;102833.03;;;15.06;69.54
54455;BME280;40364;52.270;10.546;2023-02-13T07:27:25;102839.41;;;14.26;73.91
54455;BME280;40364;52.270;10.546;2023-02-13T07:29:54;102835.41;;;14.91;70.47
54455;BME280;40364;52.270;10.546;2023-02-13T07:32:21;102839.81;;;14.47;74.17
54455;BME280;40364;52.270;10.546;2023-02-13T07:34:49;102839.41;;;14.98;71.01
54455;BME280;40364;52.270;10.546;2023-02-13T07:37:16;102842.94;;;14.18;72.83
54455;BME280;40364;52.270;10.546;2023-02-13T07:39:42;102843.38;;;14.97;70.79
54455;BME280;40364;52.270;10.546;2023-02-13T07:42:09;102848.25;;;14.69;71.27
54455;BME280;40364;52.270;10.546;2023-02-13T07:44:36;102856.44;;;14.43;72.86
54455;BME280;40364;52.270;10.546;2023-02-13T07:47:02;102853.22;;;14.36;74.19
54455;BME280;40364;52.270;10.546;2023-02-13T07:49:29;102847.31;;;14.74;71.84
54455;BME280;40364;52.270;10.546;2023-02-13T07:51:57;102852.16;;;14.82;71.02
54455;BME280;40364;52.270;10.546;2023-02-13T07:54:23;102853.63;;;13.61;78.71
54455;BME280;40364;52.270;10.546;2023-02-13T07:56:50;102854.94;;;13.36;83.23
54455;BME280;40364;52.270;10.546;2023-02-13T07:59:17;102851.03;;;14.47;75.12
54455;BME280;40364;52.270;10.546;2023-02-13T08:01:43;102861.63;;;14.36;76.47
54455;BME280;40364;52.270;10.546;2023-02-13T08:04:10;102857.28;;;14.16;75.78
54455;BME280;40364;52.270;10.546;2023-02-13T08:06:38;102858.72;;;14.14;77.41
54455;BME280;40364;52.270;10.546;2023-02-13T08:09:06;102863.28;;;14.10;77.84
54455;BME280;40364;52.270;10.546;2023-02-13T08:11:51;102851.88;;;14.70;74.94
54455;BME280;40364;52.270;10.546;2023-02-13T08:14:22;102862.94;;;14.39;76.03
54455;BME280;40364;52.270;10.546;2023-02-13T08:16:50;102861.81;;;14.54;75.44
54455;BME280;40364;52.270;10.546;2023-02-13T08:19:18;102870.84;;;14.51;74.09
54455;BME280;40364;52.270;10.546;2023-02-13T08:21:44;102873.47;;;13.92;78.41
54455;BME280;40364;52.270;10.546;2023-02-13T08:24:13;102872.13;;;14.17;76.55
54455;BME280;40364;52.270;10.546;2023-02-13T08:26:39;102876.47;;;13.68;79.55
54455;BME280;40364;52.270;10.546;2023-02-13T08:29:06;102879.06;;;13.78;79.99
54455;BME280;40364;52.270;10.546;2023-02-13T08:31:33;102874.50;;;14.24;74.90
54455;BME280;40364;52.270;10.546;2023-02-13T08:34:00;102865.16;;;15.00;72.01
54455;BME280;40364;52.270;10.546;2023-02-13T08:36:26;102869.03;;;15.27;69.10
54455;BME280;40364;52.270;10.546;2023-02-13T08:38:53;102868.47;;;14.58;71.43
54455;BME280;40364;52.270;10.546;2023-02-13T08:41:22;102862.91;;;13.75;80.79
54455;BME280;40364;52.270;10.546;2023-02-13T08:43:49;102878.06;;;14.02;78.90
54455;BME280;40364;52.270;10.546;2023-02-13T08:46:16;102870.56;;;14.11;77.87
54455;BME280;40364;52.270;10.546;2023-02-13T08:48:43;102872.13;;;14.03;77.92
54455;BME280;40364;52.270;10.546;2023-02-13T08:51:11;102869.84;;;14.05;80.43
54455;BME280;40364;52.270;10.546;2023-02-13T08:53:39;102873.03;;;14.90;74.51
54455;BME280;40364;52.270;10.546;2023-02-13T08:56:06;102875.44;;;14.33;75.79
54455;BME280;40364;52.270;10.546;2023-02-13T08:58:34;102864.50;;;13.49;85.05
54455;BME280;40364;52.270;10.546;2023-02-13T09:01:03;102860.75;;;13.40;86.72
54455;BME280;40364;52.270;10.546;2023-02-13T09:03:30;102871.19;;;13.80;81.14
54455;BME280;40364;52.270;10.546;2023-02-13T09:05:58;102871.41;;;13.98;81.71
54455;BME280;40364;52.270;10.546;2023-02-13T09:08:25;102867.81;;;14.61;76.90
54455;BME280;40364;52.270;10.546;2023-02-13T09:10:55;102869.31;;;14.80;76.38
54455;BME280;40364;52.270;10.546;2023-02-13T09:13:23;102883.50;;;14.98;73.19
54455;BME280;40364;52.270;10.546;2023-02-13T09:15:51;102878.09;;;14.65;74.44
54455;BME280;40364;52.270;10.546;2023-02-13T09:18:18;102881.34;;;14.31;76.25
54455;BME280;40364;52.270;10.546;2023-02-13T09:20:44;102880.53;;;14.17;76.04
54455;BME280;40364;52.270;10.546;2023-02-13T09:23:11;102879.78;;;14.25;75.96
54455;BME280;40364;52.270;10.546;2023-02-13T09:25:37;102874.13;;;14.03;78.37
54455;BME280;40364;52.270;10.546;2023-02-13T09:28:04;102881.56;;;14.07;77.87
54455;BME280;40364;52.270;10.546;2023-02-13T09:30:31;102873.34;;;14.88;73.49
54455;BME280;40364;52.270;10.546;2023-02-13T09:32:59;102880.72;;;14.48;74.70
54455;BME280;40364;52.270;10.546;2023-02-13T09:35:26;102883.63;;;14.29;74.73
54455;BME280;40364;52.270;10.546;2023-02-13T09:37:53;102873.88;;;13.86;77.95
54455;BME280;40364;52.270;10.546;2023-02-13T09:40:24;102873.16;;;14.85;74.64
54455;BME280;40364;52.270;10.546;2023-02-13T09:42:52;102879.06;;;15.50;69.38
54455;BME280;40364;52.270;10.546;2023-02-13T09:45:22;102872.72;;;14.41;72.30
54455;BME280;40364;52.270;10.546;2023-02-13T09:47:49;102868.91;;;14.24;74.24
54455;BME280;40364;52.270;10.546;2023-02-13T09:50:20;102873.56;;;14.56;72.61
54455;BME280;40364;52.270;10.546;2023-02-13T09:52:50;102873.13;;;13.53;79.60
54455;BME280;40364;52.270;10.546;2023-02-13T09:55:19;102872.09;;;14.58;74.58
54455;BME280;40364;52.270;10.546;2023-02-13T09:57:52;102872.53;;;14.24;74.99
54455;BME280;40364;52.270;10.546;2023-02-13T10:00:25;102883.41;;;15.34;69.02
54455;BME280;40364;52.270;10.546;2023-02-13T10:03:13;102877.88;;;14.98;70.31
54455;BME280;40364;52.270;10.546;2023-02-13T10:05:52;102879.59;;;15.07;67.29
54455;BME280;40364;52.270;10.546;2023-02-13T10:08:40;102885.72;;;15.09;68.86
54455;BME280;40364;52.270;10.546;2023-02-13T10:11:22;102881.00;;;14.96;68.77
54455;BME280;40364;52.270;10.546;2023-02-13T10:14:00;102881.59;;;14.71;70.52
54455;BME280;40364;52.270;10.546;2023-02-13T10:16:35;102885.94;;;14.27;72.19
54455;BME280;40364;52.270;10.546;2023-02-13T10:19:07;102886.34;;;14.34;73.28
54455;BME280;40364;52.270;10.546;2023-02-13T10:21:41;102897.66;;;14.29;73.88
54455;BME280;40364;52.270;10.546;2023-02-13T10:24:13;102900.78;;;15.36;68.67
54455;BME280;40364;52.270;10.546;2023-02-13T10:26:43;102896.53;;;14.03;74.42
54455;BME280;40364;52.270;10.546;2023-02-13T10:29:18;102885.19;;;14.08;73.11
54455;BME280;40364;52.270;10.546;2023-02-13T10:32:07;102891.84;;;14.53;72.55
54455;BME280;40364;52.270;10.546;2023-02-13T10:34:38;102888.91;;;15.39;67.09
54455;BME280;40364;52.270;10.546;2023-02-13T10:37:12;102893.63;;;15.07;68.32
54455;BME280;40364;52.270;10.546;2023-02-13T10:39:42;102888.91;;;14.58;70.99
54455;BME280;40364;52.270;10.546;2023-02-13T10:42:17;102891.34;;;15.09;68.40
54455;BME280;40364;52.270;10.546;2023-02-13T10:44:53;102878.44;;;15.08;67.52
54455;BME280;40364;52.270;10.546;2023-02-13T10:47:37;102889.78;;;15.48;64.61
54455;BME280;40364;52.270;10.546;2023-02-13T10:50:15;102885.31;;;15.47;64.83
54455;BME280;40364;52.270;10.546;2023-02-13T10:52:52;102889.56;;;16.55;60.38
54455;BME280;40364;52.270;10.546;2023-02-13T10:55:53;102880.50;;;14.94;65.21
54455;BME280;40364;52.270;10.546;2023-02-13T10:58:28;102878.44;;;14.50;69.49
54455;BME280;40364;52.270;10.546;2023-02-13T11:01:02;102879.69;;;14.30;70.60
54455;BME280;40364;52.270;10.546;2023-02-13T11:03:30;102875.22;;;14.93;67.77
54455;BME280;40364;52.270;10.546;2023-02-13T11:05:58;102871.63;;;15.01;65.20
54455;BME280;40364;52.270;10.546;2023-02-13T11:08:31;102870.84;;;14.64;68.93
54455;BME280;40364;52.270;10.546;2023-02-13T11:10:58;102869.22;;;14.08;71.16
54455;BME280;40364;52.270;10.546;2023-02-13T11:13:27;102873.56;;;14.42;68.91
54455;BME280;40364;52.270;10.546;2023-02-13T11:15:59;102863.41;;;15.27;65.83
54455;BME280;40364;52.270;10.546;2023-02-13T11:18:28;102863.28;;;14.87;66.76
54455;BME280;40364;52.270;10.546;2023-02-13T11:21:06;102875.56;;;15.44;65.12
54455;BME280;40364;52.270;10.546;2023-02-13T11:23:38;102869.50;;;15.06;65.35
54455;BME280;40364;52.270;10.546;2023-02-13T11:26:07;102881.75;;;14.38;68.64
54455;BME280;40364;52.270;10.546;2023-02-13T11:28:37;102873.78;;;14.18;70.19
54455;BME280;40364;52.270;10.546;2023-02-13T11:31:10;102871.19;;;14.35;67.51
54455;BME280;40364;52.270;10.546;2023-02-13T11:33:37;102868.28;;;13.99;69.38
54455;BME280;40364;52.270;10.546;2023-02-13T11:36:07;102859.94;;;13.53;72.87
54455;BME280;40364;52.270;10.546;2023-02-13T11:38:35;102868.59;;;14.11;68.86
54455;BME280;40364;52.270;10.546;2023-02-13T11:41:06;102861.53;;;14.28;68.60
54455;BME280;40364;52.270;10.546;2023-02-13T11:43:36;102854.03;;;14.87;66.25
54455;BME280;40364;52.270;10.546;2023-02-13T11:46:05;102855.19;;;14.72;66.06
54455;BME280;40364;52.270;10.546;2023-02-13T11:48:33;102852.16;;;14.82;63.59
54455;BME280;40364;52.270;10.546;2023-02-13T11:51:00;102847.09;;;14.07;67.07
54455;BME280;40364;52.270;10.546;2023-02-13T11:53:29;102855.66;;;14.38;66.03
54455;BME280;40364;52.270;10.546;2023-02-13T11:56:04;102855.59;;;14.29;66.03
54455;BME280;40364;52.270;10.546;2023-02-13T11:58:31;102851.47;;;14.13;67.16
54455;BME280;40364;52.270;10.546;2023-02-13T12:01:20;102859.25;;;14.16;67.93
54455;BME280;40364;52.270;10.546;2023-02-13T12:04:04;102856.84;;;14.37;67.14
54455;BME280;40364;52.270;10.546;2023-02-13T12:06:32;102847.38;;;14.60;65.48
54455;BME280;40364;52.270;10.546;2023-02-13T12:09:07;102852.56;;;14.39;66.55
54455;BME280;40364;52.270;10.546;2023-02-13T12:11:40;102844.53;;;15.49;63.77
54455;BME280;40364;52.270;10.546;2023-02-13T12:14:10;102835.41;;;14.91;64.69
54455;BME280;40364;52.270;10.546;2023-02-13T12:16:42;102839.63;;;15.33;62.38
54455;BME280;40364;52.270;10.546;2023-02-13T12:19:14;102838.41;;;16.35;58.12
54455;BME280;40364;52.270;10.546;2023-02-13T12:22:01;102836.19;;;16.06;58.69
54455;BME280;40364;52.270;10.546;2023-02-13T12:25:08;102830.63;;;15.44;60.75
54455;BME280;40364;52.270;10.546;2023-02-13T12:27:44;102829.84;;;15.53;60.74
54455;BME280;40364;52.270;10.546;2023-02-13T12:33:34;102822.63;;;15.60;59.56
54455;BME280;40364;52.270;10.546;2023-02-13T12:36:06;102825.75;;;15.28;60.06
54455;BME280;40364;52.270;10.546;2023-02-13T12:38:47;102817.13;;;15.95;58.63
54455;BME280;40364;52.270;10.546;2023-02-13T12:41:20;102817.00;;;15.60;59.76
54455;BME280;40364;52.270;10.546;2023-02-13T12:44:29;102810.13;;;15.13;61.32
54455;BME280;40364;52.270;10.546;2023-02-13T12:47:08;102816.53;;;15.36;60.53
54455;BME280;40364;52.270;10.546;2023-02-13T12:50:03;102811.72;;;15.05;61.33
54455;BME280;40364;52.270;10.546;2023-02-13T12:52:48;102811.19;;;14.95;62.42
54455;BME280;40364;52.270;10.546;2023-02-13T12:55:44;102807.13;;;15.09;61.79
54455;BME280;40364;52.270;10.546;2023-02-13T12:58:29;102806.13;;;15.59;59.69
54455;BME280;40364;52.270;10.546;2023-02-13T13:01:11;102805.84;;;15.46;60.14
54455;BME280;40364;52.270;10.546;2023-02-13T13:03:48;102804.47;;;16.23;57.90
54455;BME280;40364;52.270;10.546;2023-02-13T13:06:29;102794.91;;;16.59;56.33
54455;BME280;40364;52.270;10.546;2023-02-13T13:09:10;102792.25;;;16.62;54.61
54455;BME280;40364;52.270;10.546;2023-02-13T13:11:55;102797.97;;;15.97;56.62